createdAt,value
2018-12-23T00:00:39.135Z,87.80
2018-12-23T00:03:07.322Z,87.80
2018-12-23T00:05:35.427Z,88.00
2018-12-23T00:08:03.519Z,88.00
2018-12-23T00:10:31.696Z,88.50
2018-12-23T00:12:59.793Z,88.30
2018-12-23T00:15:27.871Z,88.20
2018-12-23T00:17:55.953Z,88.30
2018-12-23T00:20:24.120Z,88.40
2018-12-23T00:22:52.197Z,88.60
2018-12-23T00:25:20.264Z,88.90
2018-12-23T00:27:48.367Z,89.20
2018-12-23T00:30:16.549Z,89.40
2018-12-23T00:32:44.631Z,89.50
2018-12-23T00:35:20.084Z,89.70
2018-12-23T00:37:42.816Z,89.80
2018-12-23T00:40:10.948Z,90.00
2018-12-23T00:42:39.046Z,90.10
2018-12-23T00:45:07.279Z,90.30
2018-12-23T00:47:35.360Z,90.40
2018-12-23T00:50:04.842Z,90.60
2018-12-23T00:52:33.038Z,90.60
2018-12-23T00:55:01.132Z,90.60
2018-12-23T00:57:29.208Z,90.60
2018-12-23T00:59:57.312Z,90.50
2018-12-23T01:02:25.364Z,90.60
2018-12-23T01:04:53.674Z,90.50
2018-12-23T01:07:21.760Z,90.50
2018-12-23T01:09:49.857Z,90.50
2018-12-23T01:12:17.948Z,90.60
2018-12-23T01:14:46.096Z,90.60
2018-12-23T01:17:14.182Z,90.50
2018-12-23T01:19:42.271Z,90.50
2018-12-23T01:22:10.413Z,90.60
2018-12-23T01:24:38.500Z,90.60
2018-12-23T01:27:06.551Z,90.50
2018-12-23T01:29:34.638Z,90.60
2018-12-23T01:32:02.895Z,90.50
2018-12-23T01:34:37.003Z,90.50
2018-12-23T01:37:01.056Z,90.60
2018-12-23T01:39:29.293Z,90.60
2018-12-23T01:41:57.433Z,90.60
2018-12-23T01:44:25.707Z,90.60
2018-12-23T01:46:53.787Z,90.80
2018-12-23T01:49:21.875Z,90.80
2018-12-23T01:51:49.932Z,90.80
2018-12-23T01:54:18.150Z,90.80
2018-12-23T01:56:46.209Z,90.80
2018-12-23T01:59:14.260Z,90.90
2018-12-23T02:01:42.404Z,91.00
2018-12-23T02:04:10.508Z,90.90
2018-12-23T02:06:39.029Z,91.00
2018-12-23T02:09:07.264Z,91.00
2018-12-23T02:11:35.360Z,91.10
2018-12-23T02:14:03.532Z,91.10
2018-12-23T02:16:31.610Z,91.10
2018-12-23T02:18:59.731Z,91.10
2018-12-23T02:21:27.851Z,91.10
2018-12-23T02:23:55.939Z,91.10
2018-12-23T02:26:24.068Z,91.10
2018-12-23T02:28:52.154Z,91.20
2018-12-23T02:31:20.313Z,91.20
2018-12-23T02:33:48.617Z,91.10
2018-12-23T02:36:16.689Z,91.10
2018-12-23T02:38:44.764Z,91.10
2018-12-23T02:41:12.817Z,91.10
2018-12-23T02:43:41.006Z,91.10
2018-12-23T02:46:12.628Z,91.10
2018-12-23T02:48:41.323Z,91.00
2018-12-23T02:51:09.407Z,91.00
2018-12-23T02:53:37.508Z,91.00
2018-12-23T02:56:05.657Z,90.90
2018-12-23T02:58:33.731Z,90.90
2018-12-23T03:01:01.979Z,90.80
2018-12-23T03:03:30.014Z,91.10
2018-12-23T03:06:05.662Z,90.70
2018-12-23T03:08:29.176Z,90.80
2018-12-23T03:10:57.263Z,90.80
2018-12-23T03:13:25.436Z,90.80
2018-12-23T03:15:55.114Z,90.80
2018-12-23T03:18:23.224Z,90.80
2018-12-23T03:20:51.311Z,90.80
2018-12-23T03:23:19.408Z,90.80
2018-12-23T03:25:47.602Z,90.80
2018-12-23T03:28:15.804Z,90.80
2018-12-23T03:30:43.901Z,90.80
2018-12-23T03:33:11.962Z,90.80
2018-12-23T03:35:40.044Z,90.80
2018-12-23T03:38:08.445Z,90.80
2018-12-23T03:40:37.950Z,90.80
2018-12-23T03:43:07.738Z,90.80
2018-12-23T03:45:38.997Z,90.70
2018-12-23T03:48:07.090Z,90.70
2018-12-23T03:50:35.232Z,90.70
2018-12-23T03:53:03.511Z,90.70
2018-12-23T03:55:32.497Z,90.70
2018-12-23T03:58:00.583Z,90.60
2018-12-23T04:00:32.333Z,90.60
2018-12-23T04:03:01.103Z,90.70
2018-12-23T04:05:29.976Z,90.60
2018-12-23T04:07:58.060Z,90.60
2018-12-23T04:10:26.352Z,90.50
2018-12-23T04:12:54.518Z,90.60
2018-12-23T04:15:22.663Z,90.60
2018-12-23T04:17:50.758Z,90.60
2018-12-23T04:20:18.845Z,90.60
2018-12-23T04:22:47.000Z,90.60
2018-12-23T04:25:15.141Z,90.60
2018-12-23T04:27:43.347Z,90.60
2018-12-23T04:30:12.124Z,90.60
2018-12-23T04:32:40.843Z,90.60
2018-12-23T04:35:08.942Z,90.60
2018-12-23T04:37:37.404Z,90.60
2018-12-23T04:40:05.752Z,90.60
2018-12-23T04:42:33.964Z,90.70
2018-12-23T04:45:02.043Z,90.70
2018-12-23T04:47:30.096Z,90.70
2018-12-23T04:49:58.201Z,90.70
2018-12-23T04:52:26.288Z,90.70
2018-12-23T04:54:54.385Z,90.70
2018-12-23T04:57:22.467Z,90.80
2018-12-23T04:59:50.563Z,90.80
2018-12-23T05:02:18.635Z,91.20
2018-12-23T05:04:47.411Z,90.80
2018-12-23T05:07:15.484Z,90.90
2018-12-23T05:09:53.435Z,90.80
2018-12-23T05:12:28.963Z,90.90
2018-12-23T05:15:05.037Z,90.90
2018-12-23T05:17:40.033Z,91.00
2018-12-23T05:20:11.812Z,91.00
2018-12-23T05:22:46.059Z,91.00
2018-12-23T05:25:21.932Z,90.90
2018-12-23T05:28:01.846Z,90.80
2018-12-23T05:30:39.584Z,90.80
2018-12-23T05:33:17.624Z,90.80
2018-12-23T05:35:49.185Z,90.80
2018-12-23T05:38:21.263Z,90.70
2018-12-23T05:40:56.713Z,90.70
2018-12-23T05:46:35.625Z,90.70
2018-12-23T05:49:09.140Z,90.80
2018-12-23T05:51:49.104Z,90.70
2018-12-23T05:54:22.655Z,91.00
2018-12-23T05:56:54.292Z,90.70
2018-12-23T05:59:28.134Z,90.70
2018-12-23T06:02:08.004Z,90.80
2018-12-23T06:04:45.648Z,90.80
2018-12-23T06:10:23.380Z,90.70
2018-12-23T06:12:55.057Z,90.60
2018-12-23T06:15:35.757Z,90.60
2018-12-23T06:18:07.091Z,90.70
2018-12-23T06:20:37.155Z,90.70
2018-12-23T06:23:15.569Z,90.70
2018-12-23T06:25:49.542Z,90.60
2018-12-23T06:28:23.035Z,90.60
2018-12-23T06:30:59.240Z,90.50
2018-12-23T06:33:39.550Z,90.70
2018-12-23T06:36:16.052Z,90.60
2018-12-23T06:38:47.895Z,90.50
2018-12-23T06:41:28.134Z,90.50
2018-12-23T06:44:01.635Z,90.60
2018-12-23T06:49:33.007Z,90.60
2018-12-23T06:52:04.527Z,90.50
2018-12-23T06:54:38.475Z,90.50
2018-12-23T06:57:08.040Z,90.50
2018-12-23T06:59:40.016Z,90.20
2018-12-23T07:02:12.152Z,90.20
2018-12-23T07:04:41.837Z,90.30
2018-12-23T07:07:18.395Z,90.20
2018-12-23T07:09:42.133Z,90.10
2018-12-23T07:12:10.260Z,90.10
2018-12-23T07:14:38.328Z,90.10
2018-12-23T07:17:07.156Z,89.90
2018-12-23T07:22:35.056Z,89.70
2018-12-23T07:25:03.101Z,89.70
2018-12-23T07:27:31.219Z,89.60
2018-12-23T07:29:59.305Z,89.70
2018-12-23T07:32:28.474Z,89.80
2018-12-23T07:34:56.762Z,89.80
2018-12-23T07:37:27.625Z,89.70
2018-12-23T07:39:55.067Z,89.80
2018-12-23T07:42:26.191Z,89.80
2018-12-23T07:44:54.289Z,89.70
2018-12-23T07:47:22.861Z,89.50
2018-12-23T07:49:51.158Z,89.50
2018-12-23T07:52:19.441Z,89.10
2018-12-23T07:54:48.696Z,89.20
2018-12-23T07:57:16.807Z,89.10
2018-12-23T07:59:45.242Z,88.80
2018-12-23T08:02:13.289Z,88.70
2018-12-23T08:04:41.882Z,88.40
2018-12-23T08:07:10.039Z,88.60
2018-12-23T08:09:38.107Z,88.20
2018-12-23T08:12:06.157Z,88.10
2018-12-23T08:14:34.312Z,87.80
2018-12-23T08:17:03.400Z,87.60
2018-12-23T08:19:31.471Z,87.70
2018-12-23T08:22:02.053Z,87.60
2018-12-23T08:24:30.111Z,87.40
2018-12-23T08:26:58.180Z,87.40
2018-12-23T08:29:26.321Z,87.30
2018-12-23T08:31:55.951Z,87.70
2018-12-23T08:34:24.653Z,87.10
2018-12-23T08:36:52.845Z,87.20
2018-12-23T08:39:31.860Z,87.20
2018-12-23T08:42:09.866Z,87.40
2018-12-23T08:44:41.905Z,87.00
2018-12-23T08:47:10.584Z,87.00
2018-12-23T08:49:38.689Z,86.60
2018-12-23T08:52:06.764Z,87.00
2018-12-23T08:54:34.832Z,86.60
2018-12-23T08:57:02.930Z,86.70
2018-12-23T08:59:30.989Z,86.40
2018-12-23T09:01:59.044Z,86.40
2018-12-23T09:04:27.105Z,86.50
2018-12-23T09:06:55.161Z,86.50
2018-12-23T09:09:23.224Z,86.50
2018-12-23T09:11:51.277Z,86.30
2018-12-23T09:14:19.399Z,86.40
2018-12-23T09:16:47.463Z,86.90
2018-12-23T09:19:15.527Z,86.60
2018-12-23T09:21:43.597Z,87.10
2018-12-23T09:24:11.701Z,87.40
2018-12-23T09:26:40.094Z,87.90
2018-12-23T09:29:08.159Z,88.50
2018-12-23T09:31:36.511Z,88.40
2018-12-23T09:34:04.595Z,88.90
2018-12-23T09:36:32.743Z,89.10
2018-12-23T09:39:00.908Z,89.00
2018-12-23T09:41:28.963Z,89.20
2018-12-23T09:43:57.019Z,89.80
2018-12-23T09:46:25.076Z,90.00
2018-12-23T09:48:53.191Z,90.00
2018-12-23T09:51:21.268Z,90.10
2018-12-23T09:53:49.323Z,90.20
2018-12-23T09:56:17.413Z,90.30
2018-12-23T09:58:45.469Z,90.40
2018-12-23T10:01:13.571Z,90.40
2018-12-23T10:03:41.659Z,90.50
2018-12-23T10:06:09.723Z,90.50
2018-12-23T10:08:37.789Z,90.70
2018-12-23T10:11:05.853Z,90.70
2018-12-23T10:13:33.943Z,90.80
2018-12-23T10:16:02.002Z,90.70
2018-12-23T10:18:30.088Z,90.80
2018-12-23T10:20:58.181Z,90.80
2018-12-23T10:23:26.279Z,90.90
2018-12-23T10:25:54.396Z,90.80
2018-12-23T10:28:22.567Z,90.80
2018-12-23T10:30:50.649Z,90.70
2018-12-23T10:33:18.751Z,91.00
2018-12-23T10:35:46.806Z,90.80
2018-12-23T10:38:18.486Z,91.00
2018-12-23T10:40:44.951Z,91.00
2018-12-23T10:43:13.058Z,91.10
2018-12-23T10:45:41.116Z,91.20
2018-12-23T10:48:09.184Z,91.00
2018-12-23T10:50:37.368Z,91.10
2018-12-23T10:53:05.423Z,91.10
2018-12-23T10:55:33.468Z,91.20
2018-12-23T10:58:01.528Z,91.00
2018-12-23T11:00:29.588Z,91.30
2018-12-23T11:02:57.830Z,91.20
2018-12-23T11:05:25.879Z,91.10
2018-12-23T11:07:53.937Z,91.00
2018-12-23T11:10:21.994Z,91.00
2018-12-23T11:12:50.043Z,91.00
2018-12-23T11:15:18.094Z,91.10
2018-12-23T11:17:46.150Z,91.00
2018-12-23T11:20:14.273Z,91.00
2018-12-23T11:22:42.344Z,91.10
2018-12-23T11:25:10.429Z,91.20
2018-12-23T11:27:38.592Z,91.20
2018-12-23T11:30:07.163Z,91.20
2018-12-23T11:32:35.231Z,91.30
2018-12-23T11:35:03.440Z,91.30
2018-12-23T11:37:31.480Z,91.40
2018-12-23T11:39:59.560Z,91.40
2018-12-23T11:42:27.668Z,91.40
2018-12-23T11:44:55.776Z,91.40
2018-12-23T11:47:23.845Z,91.50
2018-12-23T11:49:51.958Z,91.60
2018-12-23T11:52:20.198Z,91.90
2018-12-23T11:54:48.342Z,91.60
2018-12-23T11:57:16.408Z,91.30
2018-12-23T11:59:44.531Z,91.40
2018-12-23T12:02:15.363Z,91.40
2018-12-23T12:04:42.708Z,91.50
2018-12-23T12:07:10.785Z,91.40
2018-12-23T12:09:38.843Z,91.40
2018-12-23T12:12:07.355Z,91.50
2018-12-23T12:14:36.372Z,91.40
2018-12-23T12:17:04.523Z,91.40
2018-12-23T12:19:32.619Z,91.30
2018-12-23T12:22:00.698Z,91.40
2018-12-23T12:24:29.834Z,91.30
2018-12-23T12:26:57.960Z,91.40
2018-12-23T12:29:26.011Z,91.40
2018-12-23T12:31:54.082Z,91.40
2018-12-23T12:34:22.216Z,91.40
2018-12-23T12:36:50.286Z,91.40
2018-12-23T12:39:18.375Z,91.50
2018-12-23T12:41:46.450Z,91.60
2018-12-23T12:44:14.600Z,91.50
2018-12-23T12:46:42.680Z,91.60
2018-12-23T12:49:10.759Z,91.50
2018-12-23T12:51:38.848Z,91.50
2018-12-23T12:54:06.976Z,91.50
2018-12-23T12:56:35.053Z,91.60
2018-12-23T12:59:03.802Z,91.40
2018-12-23T13:01:31.822Z,91.40
2018-12-23T13:03:59.931Z,91.40
2018-12-23T13:06:27.996Z,91.40
2018-12-23T13:09:00.514Z,91.30
2018-12-23T13:11:26.097Z,91.20
2018-12-23T13:13:54.164Z,91.40
2018-12-23T13:16:22.233Z,91.40
2018-12-23T13:18:50.292Z,91.50
2018-12-23T13:21:18.356Z,91.50
2018-12-23T13:23:46.428Z,91.60
2018-12-23T13:26:14.551Z,91.60
2018-12-23T13:28:42.617Z,91.60
2018-12-23T13:31:10.680Z,91.60
2018-12-23T13:33:38.772Z,91.70
2018-12-23T13:36:07.865Z,91.60
2018-12-23T13:38:35.933Z,91.60
2018-12-23T13:41:13.075Z,91.70
2018-12-23T13:43:44.564Z,91.70
2018-12-23T13:46:18.130Z,91.90
2018-12-23T13:48:51.721Z,91.90
2018-12-23T13:51:24.269Z,91.90
2018-12-23T13:54:06.099Z,92.00
2018-12-23T13:56:39.683Z,91.90
2018-12-23T13:59:20.247Z,92.00
2018-12-23T14:02:24.351Z,92.00
2018-12-23T14:04:57.964Z,92.00
2018-12-23T14:07:45.511Z,92.00
2018-12-23T14:10:19.221Z,91.90
2018-12-23T14:12:47.314Z,92.00
2018-12-23T14:15:15.411Z,91.90
2018-12-23T14:17:43.537Z,92.30
2018-12-23T14:20:11.611Z,91.90
2018-12-23T14:22:39.662Z,91.80
2018-12-23T14:25:07.826Z,91.90
2018-12-23T14:27:35.895Z,91.80
2018-12-23T14:30:04.491Z,91.90
2018-12-23T14:32:32.555Z,91.90
2018-12-23T14:35:00.623Z,91.80
2018-12-23T14:37:28.774Z,91.70
2018-12-23T14:39:56.834Z,91.70
2018-12-23T14:42:24.980Z,91.70
2018-12-23T14:44:53.040Z,91.70
2018-12-23T14:47:21.123Z,91.50
2018-12-23T14:49:49.208Z,91.40
2018-12-23T14:52:17.291Z,91.40
2018-12-23T14:54:45.460Z,91.40
2018-12-23T14:57:13.520Z,91.20
2018-12-23T14:59:44.623Z,91.10
2018-12-23T15:02:12.683Z,91.10
2018-12-23T15:04:40.793Z,91.10
2018-12-23T15:10:11.390Z,90.90
2018-12-23T15:12:39.459Z,90.80
2018-12-23T15:15:07.537Z,90.80
2018-12-23T15:17:35.642Z,90.80
2018-12-23T15:20:03.880Z,90.80
2018-12-23T15:22:31.963Z,90.80
2018-12-23T15:25:00.294Z,90.80
2018-12-23T15:27:28.489Z,90.80
2018-12-23T15:29:56.557Z,90.70
2018-12-23T15:33:04.575Z,90.70
2018-12-23T15:35:34.422Z,90.80
2018-12-23T15:38:03.277Z,90.70
2018-12-23T15:40:32.122Z,90.70
2018-12-23T15:43:00.957Z,90.80
2018-12-23T15:45:29.828Z,91.00
2018-12-23T15:47:59.086Z,91.00
2018-12-23T15:50:27.978Z,91.00
2018-12-23T15:52:56.885Z,90.80
2018-12-23T15:55:25.713Z,90.80
2018-12-23T15:57:54.638Z,90.90
2018-12-23T16:00:23.481Z,90.90
2018-12-23T16:02:52.349Z,91.00
2018-12-23T16:05:21.451Z,91.00
2018-12-23T16:07:50.288Z,91.10
2018-12-23T16:10:19.174Z,91.20
2018-12-23T16:12:48.013Z,91.20
2018-12-23T16:15:17.336Z,91.40
2018-12-23T16:17:47.498Z,91.50
2018-12-23T16:20:16.676Z,91.50
2018-12-23T16:22:46.649Z,91.60
2018-12-23T16:25:15.754Z,91.70
2018-12-23T16:27:44.596Z,91.60
2018-12-23T16:30:13.448Z,91.70
2018-12-23T16:32:42.292Z,91.70
2018-12-23T16:35:11.136Z,91.70
2018-12-23T16:37:39.974Z,91.90
2018-12-23T16:40:10.230Z,91.90
2018-12-23T16:42:39.076Z,92.00
2018-12-23T16:45:08.251Z,92.00
2018-12-23T16:47:37.137Z,92.10
2018-12-23T16:50:06.481Z,92.10
2018-12-23T16:52:35.367Z,92.10
2018-12-23T16:55:04.359Z,92.20
2018-12-23T16:57:33.205Z,92.30
2018-12-23T17:00:02.117Z,92.80
2018-12-23T17:02:31.012Z,92.40
2018-12-23T17:04:59.861Z,92.40
2018-12-23T17:07:28.746Z,92.80
2018-12-23T17:09:57.581Z,92.40
2018-12-23T17:12:26.413Z,92.50
2018-12-23T17:14:55.256Z,92.40
2018-12-23T17:17:24.100Z,92.60
2018-12-23T17:19:53.232Z,92.60
2018-12-23T17:22:22.070Z,92.60
2018-12-23T17:24:50.908Z,92.60
2018-12-23T17:27:19.741Z,92.60
2018-12-23T17:29:48.649Z,92.60
2018-12-23T17:32:17.477Z,92.60
2018-12-23T17:34:46.381Z,92.60
2018-12-23T17:37:15.217Z,92.60
2018-12-23T17:39:44.061Z,92.70
2018-12-23T17:42:12.905Z,92.60
2018-12-23T17:44:41.745Z,92.70
2018-12-23T17:47:10.601Z,92.50
2018-12-23T17:49:39.448Z,92.70
2018-12-23T17:52:09.033Z,92.50
2018-12-23T17:54:38.020Z,92.60
2018-12-23T17:57:06.870Z,92.60
2018-12-23T17:59:35.697Z,92.50
2018-12-23T18:02:04.673Z,92.60
2018-12-23T18:04:33.507Z,92.70
2018-12-23T18:07:03.837Z,92.80
2018-12-23T18:09:32.998Z,92.80
2018-12-23T18:12:03.008Z,92.90
2018-12-23T18:14:31.848Z,92.90
2018-12-23T18:17:00.719Z,92.90
2018-12-23T18:19:29.620Z,93.00
2018-12-23T18:21:58.544Z,93.10
2018-12-23T18:24:27.382Z,93.00
2018-12-23T18:26:56.229Z,93.10
2018-12-23T18:29:25.074Z,93.20
2018-12-23T18:31:53.968Z,93.10
2018-12-23T18:34:22.824Z,93.20
2018-12-23T18:36:51.673Z,93.20
2018-12-23T18:39:20.517Z,93.20
2018-12-23T18:41:49.388Z,93.10
2018-12-23T18:44:18.221Z,93.10
2018-12-23T18:46:47.074Z,93.10
2018-12-23T18:49:15.928Z,93.20
2018-12-23T18:51:44.757Z,93.20
2018-12-23T18:54:13.608Z,93.10
2018-12-23T18:56:43.809Z,93.10
2018-12-23T18:59:14.586Z,93.20
2018-12-23T19:01:46.718Z,93.20
2018-12-23T19:04:15.553Z,93.20
2018-12-23T19:06:44.401Z,93.10
2018-12-23T19:09:45.427Z,93.20
2018-12-23T19:12:36.262Z,93.20
2018-12-23T19:15:12.392Z,93.20
2018-12-23T19:18:12.645Z,93.30
2018-12-23T19:20:51.740Z,93.30
2018-12-23T19:24:08.480Z,93.40
2018-12-23T19:27:34.283Z,93.40
2018-12-23T19:30:46.033Z,93.40
2018-12-23T19:33:50.278Z,93.40
2018-12-23T19:36:57.273Z,93.30
2018-12-23T19:40:10.057Z,93.30
2018-12-23T19:43:10.456Z,93.20
2018-12-23T19:46:26.957Z,93.20
2018-12-23T19:49:39.606Z,93.30
2018-12-23T19:52:59.878Z,93.30
2018-12-23T19:55:50.202Z,93.40
2018-12-23T19:59:06.605Z,93.30
2018-12-23T20:02:29.757Z,93.40
2018-12-23T20:06:02.241Z,93.40
2018-12-23T20:09:14.953Z,93.50
2018-12-23T20:12:29.514Z,93.50
2018-12-23T20:15:34.277Z,93.50
2018-12-23T20:18:50.502Z,93.60
2018-12-23T20:21:31.608Z,93.70
2018-12-23T20:24:39.842Z,93.70
2018-12-23T20:27:53.864Z,93.70
2018-12-23T20:30:59.050Z,93.60
2018-12-23T20:34:02.054Z,93.70
2018-12-23T20:37:15.153Z,93.70
2018-12-23T20:40:16.539Z,93.70
2018-12-23T20:43:18.651Z,93.70
2018-12-23T20:46:32.914Z,93.70
2018-12-23T20:49:49.600Z,93.70
2018-12-23T20:52:43.080Z,93.80
2018-12-23T20:55:48.896Z,93.70
2018-12-23T20:58:51.501Z,93.70
2018-12-23T21:01:42.934Z,93.70
2018-12-23T21:04:49.195Z,93.70
2018-12-23T21:07:51.514Z,93.70
2018-12-23T21:11:16.048Z,93.70
2018-12-23T21:14:22.504Z,93.70
2018-12-23T21:17:54.995Z,93.70
2018-12-23T21:21:29.838Z,93.70
2018-12-23T21:24:35.642Z,93.70
2018-12-23T21:27:44.642Z,93.60
2018-12-23T21:30:53.150Z,93.60
2018-12-23T21:34:03.026Z,93.50
2018-12-23T21:37:08.209Z,93.50
2018-12-23T21:40:10.058Z,93.40
2018-12-23T21:43:29.143Z,93.50
2018-12-23T21:46:38.234Z,93.40
2018-12-23T21:49:57.418Z,93.40
2018-12-23T21:53:10.619Z,93.40
2018-12-23T21:56:14.473Z,93.30
2018-12-23T21:59:17.983Z,93.30
2018-12-23T22:02:24.806Z,93.40
2018-12-23T22:05:33.713Z,93.50
2018-12-23T22:08:39.453Z,93.50
2018-12-23T22:11:34.288Z,93.60
2018-12-23T22:14:04.228Z,93.60
2018-12-23T22:16:34.418Z,93.60
2018-12-23T22:19:04.929Z,93.70
2018-12-23T22:21:34.932Z,93.70
2018-12-23T22:24:04.860Z,93.70
2018-12-23T22:26:35.762Z,93.80
2018-12-23T22:29:05.688Z,93.80
2018-12-23T22:31:36.119Z,93.80
2018-12-23T22:34:06.064Z,93.80
2018-12-23T22:36:36.528Z,93.90
2018-12-23T22:39:07.944Z,93.80
2018-12-23T22:41:41.472Z,93.80
2018-12-23T22:44:11.067Z,93.90
2018-12-23T22:46:41.277Z,93.90
2018-12-23T22:49:11.378Z,93.90
2018-12-23T22:51:41.297Z,93.90
2018-12-23T22:54:11.244Z,94.00
2018-12-23T22:56:41.247Z,93.90
2018-12-23T22:59:12.400Z,94.00
2018-12-23T23:01:43.760Z,94.00
2018-12-23T23:04:14.249Z,94.00
2018-12-23T23:06:45.126Z,94.00
2018-12-23T23:09:15.143Z,94.00
2018-12-23T23:11:49.765Z,93.90
2018-12-23T23:14:16.719Z,93.90
2018-12-23T23:16:46.980Z,93.90
2018-12-23T23:19:17.150Z,93.90
2018-12-23T23:21:47.327Z,93.90
2018-12-23T23:24:17.300Z,93.90
2018-12-23T23:26:47.252Z,93.90
2018-12-23T23:29:17.414Z,93.90
2018-12-23T23:31:47.365Z,93.90
2018-12-23T23:34:19.026Z,93.90
2018-12-23T23:36:49.116Z,93.90
2018-12-23T23:39:19.056Z,93.90
2018-12-23T23:41:48.976Z,93.90
2018-12-23T23:44:18.951Z,93.80
2018-12-23T23:46:48.881Z,93.80
2018-12-23T23:49:18.804Z,93.80
2018-12-23T23:51:48.760Z,93.80
2018-12-23T23:54:18.685Z,94.20
2018-12-23T23:56:48.621Z,93.80
